Time;durP1;ratioP1;P1;durP2;ratioP2;P2;SDS_P1;SDS_P2;PMS_P1;PMS_P2;Temp;Humidity;BMP_temperature;BMP_pressure;BME280_temperature;BME280_humidity;BME280_pressure;Samples;Min_cycle;Max_cycle;Signal;HPM_P1;HPM_P2
2022/06/23 00:00:59;;;;;;;36.30;25.75;;;;;;;23.59;100.00;96105.50;4986887;28;20078;-53
2022/06/23 00:03:29;;;;;;;33.67;25.23;;;;;;;23.25;100.00;96107.16;4987736;28;20064;-50
2022/06/23 00:06:00;;;;;;;36.95;25.88;;;;;;;23.02;100.00;96116.03;4986209;28;20066;-56
2022/06/23 00:08:28;;;;;;;;;;;;;;;23.12;100.00;96120.81;4966742;28;20082;-51
2022/06/23 00:10:58;;;;;;;34.05;24.42;;;;;;;23.27;100.00;96118.50;4984180;28;19964;-50
2022/06/23 00:13:33;;;;;;;37.38;24.80;;;;;;;23.22;100.00;96129.13;4987129;28;20548;-52
2022/06/23 00:16:04;;;;;;;33.40;23.60;;;;;;;23.32;100.00;96131.25;4986809;28;20074;-56
2022/06/23 00:18:34;;;;;;;31.27;23.13;;;;;;;23.41;100.00;96129.88;4986261;28;20058;-49
2022/06/23 00:21:05;;;;;;;30.13;23.45;;;;;;;23.75;100.00;96116.66;4987054;28;20495;-54
2022/06/23 00:23:35;;;;;;;31.13;23.10;;;;;;;23.79;100.00;96120.50;4987455;28;20101;-52
2022/06/23 00:26:05;;;;;;;;;;;;;;;23.87;100.00;96112.06;4969158;28;20070;-53
2022/06/23 00:28:35;;;;;;;29.50;21.30;;;;;;;23.80;100.00;96130.22;4980796;28;19960;-52
2022/06/23 00:31:07;;;;;;;30.73;20.60;;;;;;;23.89;100.00;96115.34;4987522;28;20069;-54
2022/06/23 00:33:39;;;;;;;27.33;18.83;;;;;;;23.93;100.00;96111.94;4983649;28;20093;-54
2022/06/23 00:36:16;;;;;;;28.55;19.42;;;;;;;23.92;100.00;96120.25;4970767;28;20529;-53
2022/06/23 00:38:44;;;;;;;25.52;18.30;;;;;;;23.93;100.00;96120.00;4991294;28;20097;-54
2022/06/23 00:41:16;;;;;;;30.08;19.08;;;;;;;23.89;100.00;96123.44;4991663;28;20101;-48
2022/06/23 00:43:46;;;;;;;24.15;17.40;;;;;;;23.73;100.00;96129.53;4989882;28;20066;-49
2022/06/23 00:46:22;;;;;;;23.27;17.33;;;;;;;23.69;100.00;96124.59;4990680;28;20070;-52
2022/06/23 00:48:55;;;;;;;24.88;16.75;;;;;;;23.46;100.00;96122.72;4990455;28;20489;-52
2022/06/23 00:51:27;;;;;;;27.80;17.00;;;;;;;23.56;100.00;96124.00;4991544;28;20073;-54
2022/06/23 00:53:58;;;;;;;22.85;16.40;;;;;;;23.60;100.00;96131.38;4990671;28;20097;-55
2022/06/23 00:56:33;;;;;;;25.65;16.42;;;;;;;23.58;100.00;96125.41;4990815;28;20082;-52
2022/06/23 00:59:05;;;;;;;23.00;16.58;;;;;;;23.61;100.00;96124.94;4991367;28;20062;-51
2022/06/23 01:01:42;;;;;;;23.52;15.80;;;;;;;23.65;100.00;96128.00;4989940;28;20547;-50
2022/06/23 01:04:20;;;;;;;22.38;16.45;;;;;;;23.58;100.00;96119.22;4989996;28;20074;-51
2022/06/23 01:06:51;;;;;;;25.05;15.63;;;;;;;23.62;100.00;96120.38;4989778;28;20062;-49
2022/06/23 01:09:25;;;;;;;22.40;15.98;;;;;;;23.61;100.00;96114.19;4989505;28;20178;-50
2022/06/23 01:11:56;;;;;;;25.10;16.83;;;;;;;23.60;100.00;96117.09;4983734;28;20583;-55
2022/06/23 01:14:30;;;;;;;25.30;15.88;;;;;;;23.25;100.00;96134.06;4989616;28;20086;-57
2022/06/23 01:17:09;;;;;;;25.67;16.38;;;;;;;23.18;100.00;96138.72;4973488;28;20077;-49
2022/06/23 01:20:02;;;;;;;24.17;16.33;;;;;;;23.32;100.00;96134.75;4985306;28;20080;-52
2022/06/23 01:22:41;;;;;;;26.52;16.60;;;;;;;23.52;100.00;96136.28;4989435;28;20066;-52
2022/06/23 01:25:26;;;;;;;27.60;17.63;;;;;;;23.55;100.00;96133.13;4988549;28;21189;-52
2022/06/23 01:28:01;;;;;;;24.73;17.20;;;;;;;23.52;100.00;96133.59;4987074;28;20073;-53
2022/06/23 01:30:33;;;;;;;25.92;16.90;;;;;;;23.31;100.00;96143.06;4985041;28;20062;-50
2022/06/23 01:33:08;;;;;;;21.88;17.00;;;;;;;23.05;100.00;96149.69;4968019;28;20075;-51
2022/06/23 01:35:40;;;;;;;23.45;17.35;;;;;;;23.23;100.00;96149.63;4970993;28;20135;-54
2022/06/23 01:38:13;;;;;;;26.70;17.25;;;;;;;23.11;100.00;96151.47;4988916;28;20065;-54
2022/06/23 01:40:45;;;;;;;23.52;16.48;;;;;;;23.11;100.00;96156.84;4989255;28;20077;-50
2022/06/23 01:43:17;;;;;;;24.55;17.58;;;;;;;22.60;100.00;96153.63;4988254;28;20146;-58
2022/06/23 01:45:50;;;;;;;27.60;18.83;;;;;;;22.61;100.00;96162.50;4981642;28;20077;-52
2022/06/23 01:48:51;;;;;;;25.88;18.17;;;;;;;22.63;100.00;96165.78;4970590;28;20085;-49
2022/06/23 01:51:20;;;;;;;26.65;17.88;;;;;;;23.21;100.00;96160.59;4971976;28;20516;-53
2022/06/23 01:53:50;;;;;;;24.90;18.10;;;;;;;23.11;100.00;96168.41;4989958;28;20460;-57
2022/06/23 01:56:28;;;;;;;28.02;18.05;;;;;;;23.27;100.00;96161.56;4989839;28;20070;-53
2022/06/23 01:59:05;;;;;;;28.92;19.23;;;;;;;23.27;100.00;96155.38;4985533;28;20077;-53
2022/06/23 02:01:44;;;;;;;29.48;18.48;;;;;;;23.03;100.00;96166.06;4990210;28;20065;-53
2022/06/23 02:04:18;;;;;;;28.83;19.85;;;;;;;23.16;100.00;96165.06;4977732;28;20069;-53
2022/06/23 02:06:50;;;;;;;24.92;19.42;;;;;;;23.01;100.00;96167.34;4977351;28;20065;-53
2022/06/23 02:09:23;;;;;;;26.83;18.92;;;;;;;23.21;100.00;96165.16;4989475;28;20061;-54
2022/06/23 02:11:53;;;;;;;24.15;18.55;;;;;;;23.18;100.00;96171.00;4988547;28;20066;-56
2022/06/23 02:14:42;;;;;;;25.50;18.60;;;;;;;23.23;100.00;96171.16;4988632;28;20073;-54
2022/06/23 02:17:16;;;;;;;24.30;18.65;;;;;;;23.04;100.00;96164.19;4970572;28;20060;-53
2022/06/23 02:19:47;;;;;;;26.38;18.35;;;;;;;23.25;100.00;96168.22;4964661;28;20085;-57
2022/06/23 02:22:22;;;;;;;24.50;18.17;;;;;;;22.83;100.00;96169.03;4967437;28;20082;-53
2022/06/23 02:24:55;;;;;;;23.77;18.17;;;;;;;23.08;100.00;96179.63;4974705;28;20076;-55
2022/06/23 02:27:29;;;;;;;28.13;18.13;;;;;;;23.18;100.00;96176.38;4983133;28;20081;-52
2022/06/23 02:30:01;;;;;;;26.00;18.25;;;;;;;23.04;100.00;96178.47;4965738;28;20085;-53
2022/06/23 02:32:42;;;;;;;27.48;19.65;;;;;;;23.09;100.00;96178.59;4987398;28;20077;-49
2022/06/23 02:35:20;;;;;;;26.27;18.60;;;;;;;23.10;100.00;96182.13;4989319;28;20042;-51
2022/06/23 02:37:56;;;;;;;26.00;19.27;;;;;;;23.05;100.00;96185.47;4986963;28;20066;-50
2022/06/23 02:40:30;;;;;;;26.35;18.45;;;;;;;23.14;100.00;96185.97;4983438;28;20058;-57
2022/06/23 02:43:02;;;;;;;29.73;20.15;;;;;;;23.12;100.00;96177.31;4986595;28;20499;-49
2022/06/23 02:45:59;;;;;;;28.05;19.42;;;;;;;22.65;100.00;96187.91;5018513;28;20062;-53
2022/06/23 02:48:42;;;;;;;26.30;19.33;;;;;;;22.62;100.00;96197.22;4987397;28;20057;-50
2022/06/23 02:51:22;;;;;;;24.67;19.70;;;;;;;22.77;100.00;96199.50;4988167;28;20086;-53
2022/06/23 02:54:06;;;;;;;30.30;19.45;;;;;;;22.61;100.00;96200.97;4987434;28;20077;-53
2022/06/23 02:56:55;;;;;;;26.67;19.80;;;;;;;22.92;100.00;96199.97;4986322;28;20073;-52
2022/06/23 02:59:30;;;;;;;26.63;19.55;;;;;;;22.86;100.00;96195.44;4985084;28;21527;-53
2022/06/23 03:02:03;;;;;;;32.85;21.17;;;;;;;22.86;100.00;96208.09;4999144;28;20293;-54
2022/06/23 03:04:35;;;;;;;27.08;19.77;;;;;;;22.94;100.00;96208.59;4987305;28;20085;-52
2022/06/23 03:07:08;;;;;;;29.63;21.25;;;;;;;22.55;100.00;96212.63;4988184;28;20062;-49
2022/06/23 03:09:40;;;;;;;29.02;20.17;;;;;;;22.65;100.00;96212.91;4985680;28;20069;-52
2022/06/23 03:12:11;;;;;;;31.58;20.90;;;;;;;22.86;100.00;96208.09;4987197;28;20078;-53
2022/06/23 03:14:48;;;;;;;30.20;20.40;;;;;;;22.52;100.00;96207.69;4990353;28;20631;-54
2022/06/23 03:17:29;;;;;;;27.58;19.90;;;;;;;22.65;100.00;96207.53;4987433;28;20066;-48
2022/06/23 03:20:03;;;;;;;34.63;20.65;;;;;;;22.79;100.00;96205.47;4987710;28;20078;-51
2022/06/23 03:22:41;;;;;;;32.88;20.55;;;;;;;22.74;100.00;96208.03;4986625;28;20085;-50
2022/06/23 03:25:16;;;;;;;32.53;20.33;;;;;;;22.67;100.00;96197.34;4987285;28;20065;-52
2022/06/23 03:27:48;;;;;;;33.67;20.42;;;;;;;22.31;100.00;96217.03;4981937;28;20518;-52
2022/06/23 03:30:21;;;;;;;28.60;21.27;;;;;;;22.52;100.00;96205.00;4981114;28;20074;-50
2022/06/23 03:32:53;;;;;;;30.35;20.80;;;;;;;22.59;100.00;96213.00;4968610;28;20074;-52
2022/06/23 03:35:23;;;;;;;28.63;20.27;;;;;;;22.48;100.00;96210.00;4986299;28;20508;-49
2022/06/23 03:38:00;;;;;;;28.48;20.63;;;;;;;22.69;100.00;96218.66;4985812;28;20027;-49
2022/06/23 03:43:22;;;;;;;28.90;20.52;;;;;;;22.71;100.00;96212.00;4982778;28;20066;-52
2022/06/23 03:45:55;;;;;;;29.98;21.63;;;;;;;22.80;100.00;96215.19;4983258;28;20074;-55
2022/06/23 03:48:27;;;;;;;31.95;21.38;;;;;;;22.79;100.00;96229.69;4982976;28;20674;-49
2022/06/23 03:50:59;;;;;;;30.33;21.10;;;;;;;22.71;100.00;96221.91;4983582;28;20488;-49
2022/06/23 03:53:31;;;;;;;25.58;19.75;;;;;;;22.70;100.00;96226.47;4985996;28;20078;-54
2022/06/23 03:56:03;;;;;;;32.25;20.58;;;;;;;22.75;100.00;96223.94;4984149;28;20066;-54
2022/06/23 03:58:39;;;;;;;29.17;19.50;;;;;;;22.87;100.00;96220.47;4985115;28;20043;-54
2022/06/23 04:01:16;;;;;;;36.30;20.27;;;;;;;23.02;100.00;96220.06;4984278;28;20062;-53
2022/06/23 04:03:48;;;;;;;29.17;19.63;;;;;;;23.06;100.00;96219.41;4985257;28;20476;-52
2022/06/23 04:06:32;;;;;;;28.60;20.08;;;;;;;22.87;100.00;96221.28;4985584;28;20049;-53
2022/06/23 04:09:05;;;;;;;26.85;18.15;;;;;;;23.17;100.00;96225.88;4985810;28;20080;-53
2022/06/23 04:11:45;;;;;;;26.67;19.83;;;;;;;23.18;100.00;96231.00;4988915;28;20544;-50
2022/06/23 04:14:30;;;;;;;26.55;19.58;;;;;;;23.37;100.00;96229.09;4989704;28;20070;-50
2022/06/23 04:17:11;;;;;;;23.05;18.63;;;;;;;23.65;100.00;96220.34;4989407;28;20102;-50
2022/06/23 04:19:45;;;;;;;30.23;18.52;;;;;;;23.61;100.00;96215.66;4989315;28;20076;-50
2022/06/23 04:22:19;;;;;;;26.50;18.08;;;;;;;23.87;100.00;96217.09;4989112;28;20074;-49
2022/06/23 04:24:51;;;;;;;29.42;19.80;;;;;;;23.69;100.00;96226.94;4989289;28;20477;-55
2022/06/23 04:27:24;;;;;;;29.65;19.10;;;;;;;24.08;100.00;96219.19;4989096;28;20062;-56
2022/06/23 04:29:55;;;;;;;29.90;18.63;;;;;;;23.64;100.00;96232.16;4982762;28;20078;-51
2022/06/23 04:32:26;;;;;;;29.17;18.13;;;;;;;23.36;100.00;96243.56;4984931;28;20089;-54
2022/06/23 04:34:59;;;;;;;25.45;18.90;;;;;;;23.47;100.00;96244.66;4989278;28;20074;-50
2022/06/23 04:37:34;;;;;;;24.90;18.02;;;;;;;23.58;100.00;96238.47;4988951;28;20073;-54
2022/06/23 04:40:22;;;;;;;31.92;20.08;;;;;;;23.38;100.00;96244.16;4989218;28;20165;-51
2022/06/23 04:42:57;;;;;;;25.77;18.63;;;;;;;23.55;100.00;96238.94;4988923;28;20066;-51
2022/06/23 04:45:37;;;;;;;28.17;18.33;;;;;;;23.84;100.00;96241.78;4989181;28;20066;-52
2022/06/23 04:48:07;;;;;;;;;;;;;;;23.75;100.00;96238.66;4985054;28;20132;-56
2022/06/23 04:50:44;;;;;;;25.23;16.80;;;;;;;23.76;100.00;96237.59;4989747;28;19977;-53
2022/06/23 04:53:19;;;;;;;26.42;17.70;;;;;;;23.53;100.00;96226.75;4978512;28;20536;-53
2022/06/23 04:55:59;;;;;;;20.05;14.55;;;;;;;23.38;100.00;96237.97;4988582;28;20469;-49
2022/06/23 04:58:36;;;;;;;23.80;14.27;;;;;;;23.47;100.00;96241.97;4989131;28;20085;-51
2022/06/23 05:01:04;;;;;;;21.98;14.65;;;;;;;23.60;100.00;96244.44;4982427;28;20481;-52
2022/06/23 05:03:36;;;;;;;21.27;13.85;;;;;;;24.29;100.00;96241.19;4982021;28;20088;-53
2022/06/23 05:06:20;;;;;;;21.58;13.60;;;;;;;24.08;100.00;96242.63;4983528;28;20559;-53
2022/06/23 05:08:49;;;;;;;21.00;12.52;;;;;;;24.36;100.00;96239.19;4989284;28;20097;-50
2022/06/23 05:11:30;;;;;;;24.73;12.00;;;;;;;24.16;100.00;96244.97;4977909;28;20381;-51
2022/06/23 05:14:01;;;;;;;20.02;11.45;;;;;;;24.06;100.00;96248.25;4977122;28;20093;-47
2022/06/23 05:16:34;;;;;;;19.25;10.80;;;;;;;24.28;100.00;96240.38;4984332;28;20490;-51
2022/06/23 05:19:10;;;;;;;22.35;10.82;;;;;;;23.85;100.00;96244.28;4989172;28;20069;-52
2022/06/23 05:21:41;;;;;;;20.77;10.68;;;;;;;23.97;100.00;96246.94;4982768;28;20547;-53
2022/06/23 05:24:14;;;;;;;26.48;10.73;;;;;;;24.03;100.00;96239.81;4984632;28;20760;-49
2022/06/23 05:26:46;;;;;;;21.75;9.45;;;;;;;24.21;100.00;96245.06;4992769;28;20123;-51
2022/06/23 05:29:17;;;;;;;20.38;9.95;;;;;;;24.45;100.00;96245.06;4992422;28;20497;-56
2022/06/23 05:31:49;;;;;;;18.58;9.50;;;;;;;24.72;100.00;96231.88;4991880;28;20077;-56
2022/06/23 05:34:23;;;;;;;22.80;9.85;;;;;;;25.40;100.00;96233.72;4992314;28;20078;-55
2022/06/23 05:36:59;;;;;;;18.45;8.65;;;;;;;26.38;100.00;96219.78;4991196;28;20478;-52
2022/06/23 05:39:33;;;;;;;15.27;7.65;;;;;;;25.61;100.00;96229.47;4991870;28;20072;-49
2022/06/23 05:42:09;;;;;;;24.58;8.07;;;;;;;26.97;100.00;96219.97;4991606;28;20082;-51
2022/06/23 05:44:43;;;;;;;17.60;7.07;;;;;;;27.36;100.00;96214.44;4992435;28;20090;-53
2022/06/23 05:47:13;;;;;;;17.77;8.23;;;;;;;27.59;100.00;96214.06;4991654;28;20066;-53
2022/06/23 05:49:43;;;;;;;15.57;7.77;;;;;;;27.17;100.00;96220.22;4983655;28;20116;-57
2022/06/23 05:52:17;;;;;;;18.02;7.50;;;;;;;26.77;100.00;96219.75;4991277;28;20065;-56
2022/06/23 05:54:53;;;;;;;16.08;7.22;;;;;;;28.01;100.00;96224.19;4992057;28;20454;-51
2022/06/23 05:57:24;;;;;;;18.80;7.95;;;;;;;28.38;100.00;96215.16;4991605;28;20081;-55
2022/06/23 05:59:58;;;;;;;14.40;7.90;;;;;;;28.41;100.00;96211.16;4991807;28;20093;-54
2022/06/23 06:02:32;;;;;;;16.60;7.38;;;;;;;28.33;100.00;96210.53;4991686;28;20085;-55
2022/06/23 06:05:02;;;;;;;16.25;7.30;;;;;;;28.24;100.00;96203.97;4991912;28;20084;-55
2022/06/23 06:07:35;;;;;;;17.95;7.32;;;;;;;27.50;100.00;96212.94;4991330;28;20080;-54
2022/06/23 06:10:06;;;;;;;17.00;7.90;;;;;;;28.47;100.00;96213.63;4991382;28;20077;-53
2022/06/23 06:12:37;;;;;;;15.52;7.70;;;;;;;28.62;100.00;96207.44;4990870;28;20527;-51
2022/06/23 06:15:08;;;;;;;14.95;7.60;;;;;;;27.57;100.00;96213.53;4991161;28;20529;-53
2022/06/23 06:17:37;;;;;;;14.75;7.45;;;;;;;27.84;100.00;96215.38;4992093;28;20093;-54
2022/06/23 06:20:09;;;;;;;18.60;8.52;;;;;;;27.52;100.00;96218.09;4991446;28;20077;-56
2022/06/23 06:22:52;;;;;;;17.63;7.63;;;;;;;28.25;100.00;96211.06;4990991;28;20073;-53
2022/06/23 06:25:24;;;;;;;14.82;8.02;;;;;;;-146.19;100.00;-17548.53;4991269;28;20062;-52
2022/06/23 06:27:55;;;;;;;15.82;8.20;;;;;;;-146.19;100.00;58918.88;4990195;28;20066;-52
2022/06/23 06:30:27;;;;;;;16.70;8.13;;;;;;;-146.19;100.00;58918.88;4990824;28;20080;-51
2022/06/23 06:32:56;;;;;;;16.83;7.95;;;;;;;27.26;100.00;96214.34;4990762;28;20050;-52
2022/06/23 06:35:44;;;;;;;16.50;7.72;;;;;;;28.01;100.00;96223.34;4990495;28;20421;-53
2022/06/23 06:38:16;;;;;;;17.80;7.82;;;;;;;27.49;100.00;96218.59;4991045;28;20058;-52
2022/06/23 06:40:46;;;;;;;21.20;8.88;;;;;;;27.41;100.00;96218.00;4991110;28;20133;-50
2022/06/23 06:43:15;;;;;;;;;;;;;;;26.90;100.00;96225.56;4991223;28;20066;-53
2022/06/23 06:45:44;;;;;;;18.77;9.60;;;;;;;27.35;100.00;96223.63;4987265;28;20246;-49
2022/06/23 06:48:15;;;;;;;18.30;9.68;;;;;;;27.55;100.00;96226.50;4988103;28;20434;-50
2022/06/23 06:50:47;;;;;;;21.85;8.80;;;;;;;28.10;100.00;96225.31;4991365;28;20085;-49
2022/06/23 06:53:22;;;;;;;23.55;8.73;;;;;;;28.36;100.00;96223.59;4986332;28;20403;-52
2022/06/23 06:55:53;;;;;;;17.15;9.50;;;;;;;26.77;100.00;96225.16;4979747;28;20074;-51
2022/06/23 06:58:25;;;;;;;23.33;9.90;;;;;;;27.08;100.00;96231.72;4987782;28;20473;-50
2022/06/23 07:00:57;;;;;;;23.13;10.80;;;;;;;27.16;100.00;96234.00;4975317;28;20061;-51
2022/06/23 07:03:26;;;;;;;26.77;10.70;;;;;;;26.56;100.00;96238.44;4977502;28;20563;-53
2022/06/23 07:05:58;;;;;;;20.48;10.48;;;;;;;27.55;100.00;96226.50;4990424;28;20074;-51
2022/06/23 07:08:32;;;;;;;16.13;11.50;;;;;;;26.87;100.00;96236.09;4983462;28;20484;-50
2022/06/23 07:11:04;;;;;;;20.70;11.90;;;;;;;27.69;100.00;96238.53;4988774;28;20504;-51
2022/06/23 07:13:38;;;;;;;21.85;11.18;;;;;;;27.74;100.00;96239.69;4994960;28;20070;-50
2022/06/23 07:16:28;;;;;;;21.40;10.40;;;;;;;27.74;54.98;71081.78;4989008;28;20066;-55
2022/06/23 07:19:01;;;;;;;16.23;9.07;;;;;;;28.20;100.00;96234.59;5020569;28;20546;-49
2022/06/23 07:21:32;;;;;;;18.92;9.75;;;;;;;28.17;100.00;96234.03;4990250;28;20504;-50
2022/06/23 07:24:11;;;;;;;20.20;9.20;;;;;;;28.30;100.00;96240.09;4989953;28;20070;-52
2022/06/23 07:26:45;;;;;;;15.07;8.82;;;;;;;27.51;100.00;96238.94;4990901;28;20042;-55
2022/06/23 07:29:23;;;;;;;20.30;9.82;;;;;;;27.14;100.00;96236.97;4987068;28;20065;-48
2022/06/23 07:32:17;;;;;;;19.52;9.20;;;;;;;27.84;100.00;96234.34;4989884;28;20066;-49
2022/06/23 07:34:54;;;;;;;17.05;9.23;;;;;;;28.05;100.00;96238.84;4985510;28;20070;-52
2022/06/23 07:37:27;;;;;;;15.27;9.00;;;;;;;27.35;100.00;96235.28;4985705;28;20108;-53
2022/06/23 07:40:01;;;;;;;18.02;9.52;;;;;;;27.40;100.00;96238.03;4988851;28;20058;-54
2022/06/23 07:42:49;;;;;;;16.27;8.85;;;;;;;27.36;100.00;96234.22;4980181;28;20062;-54
2022/06/23 07:45:22;;;;;;;17.67;8.90;;;;;;;27.84;100.00;96235.19;4987351;28;20061;-52
2022/06/23 07:47:51;;;;;;;18.92;8.65;;;;;;;27.98;100.00;96237.44;4989378;28;20050;-54
2022/06/23 07:50:20;;;;;;;19.15;9.80;;;;;;;27.98;100.00;96237.44;4990402;28;20085;-51
2022/06/23 07:52:49;;;;;;;19.80;8.60;;;;;;;27.65;100.00;96218.47;4989630;28;20524;-49
2022/06/23 07:55:24;;;;;;;20.83;8.82;;;;;;;28.45;100.00;96218.47;4989394;28;20073;-52
2022/06/23 07:58:14;;;;;;;14.23;7.90;;;;;;;27.78;100.00;96213.72;4988452;28;20057;-53
2022/06/23 08:00:44;;;;;;;22.13;8.38;;;;;;;28.78;100.00;96198.28;4989442;28;20058;-50
2022/06/23 08:03:15;;;;;;;21.15;8.30;;;;;;;29.12;100.00;96199.75;4989186;28;20058;-52
2022/06/23 08:05:44;;;;;;;;;;;;;;;28.12;100.00;96211.53;4990468;28;20092;-51
2022/06/23 08:08:18;;;;;;;17.55;8.27;;;;;;;27.93;100.00;96213.81;4983338;28;19959;-48
2022/06/23 08:10:48;;;;;;;17.45;8.25;;;;;;;27.61;100.00;96208.41;4989214;28;20528;-48
2022/06/23 08:13:19;;;;;;;16.77;8.23;;;;;;;27.61;100.00;96208.41;4989181;28;20065;-54
2022/06/23 08:18:40;;;;;;;15.75;7.93;;;;;;;27.26;100.00;96212.47;4989365;28;20067;-51
2022/06/23 08:21:11;;;;;;;15.35;6.95;;;;;;;-146.19;100.00;79941.44;4989480;28;20069;-48
2022/06/23 08:23:42;;;;;;;18.17;7.15;;;;;;;28.44;100.00;79915.53;4989375;28;20198;-54
2022/06/23 08:26:12;;;;;;;15.25;5.85;;;;;;;-146.19;100.00;44151.16;4989825;28;20169;-51
2022/06/23 08:28:41;;;;;;;13.48;5.40;;;;;;;28.70;100.00;96184.38;4989510;28;20448;-52
2022/06/23 08:31:09;;;;;;;15.02;6.45;;;;;;;28.70;100.00;70927.63;4989453;28;20062;-51
2022/06/23 08:33:38;;;;;;;15.52;6.95;;;;;;;28.74;100.00;96193.66;4982736;28;20073;-52
2022/06/23 08:36:28;;;;;;;19.15;6.75;;;;;;;-140.78;100.00;58918.88;5020582;28;20049;-52
2022/06/23 08:39:00;;;;;;;15.13;6.20;;;;;;;-146.19;100.00;58918.88;4981258;28;20093;-51
2022/06/23 08:41:37;;;;;;;17.40;6.70;;;;;;;29.09;100.00;96182.09;4989335;28;20113;-53
2022/06/23 08:44:34;;;;;;;20.33;6.10;;;;;;;28.96;100.00;96180.66;4986605;28;21365;-50
2022/06/23 08:47:07;;;;;;;13.38;5.72;;;;;;;28.51;100.00;96184.88;4989670;28;20066;-50
2022/06/23 08:49:38;;;;;;;13.55;5.50;;;;;;;28.48;100.00;96185.41;4988965;28;20070;-53
2022/06/23 08:52:13;;;;;;;10.88;4.22;;;;;;;29.23;100.00;96171.53;4988888;28;20062;-54
2022/06/23 08:54:46;;;;;;;12.20;5.88;;;;;;;29.83;100.00;96179.94;4988352;28;20070;-52
2022/06/23 08:57:19;;;;;;;13.13;6.10;;;;;;;28.94;100.00;96173.88;4989081;28;20057;-49
2022/06/23 08:59:53;;;;;;;17.25;7.63;;;;;;;28.94;100.00;96173.88;4991818;28;20074;-53
2022/06/23 09:02:27;;;;;;;15.32;7.13;;;;;;;30.14;100.00;96167.91;4988543;28;21239;-53
2022/06/23 09:05:19;;;;;;;16.65;6.20;;;;;;;30.44;100.00;96168.94;4989591;28;20441;-52
2022/06/23 09:07:55;;;;;;;13.70;5.30;;;;;;;30.53;100.00;96161.81;4992565;28;20556;-51
2022/06/23 09:10:33;;;;;;;16.38;5.30;;;;;;;29.53;100.00;96166.09;4992580;28;20062;-53
2022/06/23 09:13:10;;;;;;;17.00;5.85;;;;;;;29.85;100.00;96162.28;4992596;28;20058;-50
2022/06/23 09:15:55;;;;;;;13.20;5.90;;;;;;;30.62;100.00;96160.13;4987744;28;20522;-52
2022/06/23 09:19:06;;;;;;;14.23;6.65;;;;;;;30.13;100.00;96149.97;4993742;28;20446;-49
2022/06/23 09:21:45;;;;;;;12.48;5.57;;;;;;;30.03;100.00;96158.16;4992154;28;20061;-53
2022/06/23 09:24:30;;;;;;;16.08;5.50;;;;;;;30.58;100.00;96156.34;4991881;28;20058;-50
2022/06/23 09:27:01;;;;;;;15.90;5.43;;;;;;;29.78;100.00;96159.03;4986488;28;20083;-48
2022/06/23 09:29:46;;;;;;;15.98;5.97;;;;;;;29.62;100.00;96152.78;4992547;28;20072;-49
2022/06/23 09:32:22;;;;;;;12.90;5.50;;;;;;;29.66;100.00;96147.63;4991540;28;20062;-54
2022/06/23 09:35:06;;;;;;;16.90;5.82;;;;;;;29.44;100.00;96143.25;4987371;28;20082;-51
2022/06/23 09:38:03;;;;;;;12.20;5.57;;;;;;;30.35;100.00;96141.50;4991768;28;20077;-47
2022/06/23 09:40:41;;;;;;;9.48;5.07;;;;;;;30.56;100.00;96138.66;4979973;28;20066;-53
2022/06/23 09:43:32;;;;;;;12.18;5.13;;;;;;;30.09;100.00;96139.94;4992232;28;20100;-51
2022/06/23 09:46:17;;;;;;;10.57;4.18;;;;;;;30.80;100.00;96133.38;4987135;28;20070;-51
2022/06/23 09:48:59;;;;;;;11.82;3.42;;;;;;;30.70;100.00;96128.81;4992055;28;20072;-52
2022/06/23 09:51:46;;;;;;;6.40;2.95;;;;;;;30.26;100.00;96115.97;4991076;28;20442;-52
2022/06/23 09:54:54;;;;;;;11.85;4.40;;;;;;;29.99;100.00;96113.56;4991746;28;20066;-51
2022/06/23 09:57:52;;;;;;;9.57;4.72;;;;;;;30.09;100.00;96116.25;4987500;28;20065;-47
2022/06/23 10:00:23;;;;;;;9.07;3.90;;;;;;;30.64;100.00;96113.59;4990433;28;20073;-48
2022/06/23 10:03:02;;;;;;;9.07;3.63;;;;;;;30.59;100.00;96106.25;4991701;28;20073;-48
2022/06/23 10:06:02;;;;;;;14.23;4.18;;;;;;;29.98;100.00;96110.03;4991994;28;20069;-50
2022/06/23 10:08:40;;;;;;;8.77;3.10;;;;;;;29.42;100.00;96112.00;4969513;28;20063;-48
2022/06/23 10:11:27;;;;;;;13.02;3.30;;;;;;;29.42;100.00;96114.72;4990152;28;20077;-51
2022/06/23 10:14:02;;;;;;;12.70;3.47;;;;;;;29.14;100.00;96111.47;4991340;28;20177;-53
2022/06/23 10:16:51;;;;;;;11.13;3.00;;;;;;;30.36;100.00;96104.22;4991309;28;20449;-49
2022/06/23 10:19:32;;;;;;;9.90;3.15;;;;;;;30.36;43.61;96104.22;4990303;28;20074;-49
2022/06/23 10:22:11;;;;;;;9.70;3.10;;;;;;;29.88;100.00;96104.63;4991569;28;20076;-51
2022/06/23 10:24:51;;;;;;;10.25;3.15;;;;;;;29.49;100.00;96098.97;4991457;28;20069;-50
2022/06/23 10:27:39;;;;;;;10.85;3.13;;;;;;;29.71;100.00;96087.81;4991237;28;20057;-52
2022/06/23 10:30:16;;;;;;;9.52;2.92;;;;;;;29.99;100.00;96081.75;4984525;28;20081;-48
2022/06/23 10:33:41;;;;;;;10.30;3.00;;;;;;;29.79;100.00;96089.97;4990768;28;20675;-48
2022/06/23 10:36:27;;;;;;;10.80;2.75;;;;;;;29.65;100.00;96089.72;4991065;28;20543;-47
2022/06/23 10:39:05;;;;;;;6.22;2.45;;;;;;;29.90;100.00;96091.56;4991277;28;20062;-51
2022/06/23 10:41:50;;;;;;;10.38;3.10;;;;;;;30.13;100.00;96090.13;4991311;28;20081;-50
2022/06/23 10:44:47;;;;;;;7.97;2.78;;;;;;;30.13;100.00;96083.88;4987903;28;20311;-49
2022/06/23 10:47:26;;;;;;;5.47;2.63;;;;;;;30.67;100.00;96085.81;4983579;28;20439;-53
2022/06/23 10:50:10;;;;;;;13.23;3.78;;;;;;;29.85;100.00;96082.63;4983588;28;20460;-54
2022/06/23 10:53:23;;;;;;;13.15;3.72;;;;;;;30.76;100.00;96089.56;4978930;28;20066;-50
2022/06/23 10:55:59;;;;;;;10.40;3.33;;;;;;;30.30;100.00;96084.38;4987841;28;20057;-56
2022/06/23 10:58:59;;;;;;;10.02;3.50;;;;;;;30.83;100.00;96078.38;4990614;28;20117;-51
2022/06/23 11:01:56;;;;;;;15.88;3.70;;;;;;;30.10;100.00;96079.81;4974337;28;20488;-53
2022/06/23 11:04:52;;;;;;;12.48;3.42;;;;;;;30.11;100.00;96069.72;4980682;28;20463;-48
2022/06/23 11:07:36;;;;;;;12.55;3.45;;;;;;;30.59;100.00;96065.44;4986284;28;20074;-55
2022/06/23 11:10:19;;;;;;;10.82;3.63;;;;;;;30.61;100.00;96076.06;4990519;28;20066;-52
2022/06/23 11:12:59;;;;;;;8.50;3.30;;;;;;;30.30;100.00;96072.69;4990704;28;20078;-47
2022/06/23 11:15:33;;;;;;;11.32;3.45;;;;;;;31.13;100.00;96063.72;4988773;28;20062;-48
2022/06/23 11:18:16;;;;;;;11.20;3.80;;;;;;;31.26;100.00;96063.06;4990639;28;20077;-48
2022/06/23 11:20:54;;;;;;;10.98;3.78;;;;;;;30.97;100.00;96065.75;4988301;28;20101;-50
2022/06/23 11:23:35;;;;;;;10.88;3.90;;;;;;;31.55;100.00;96059.53;4970432;28;20101;-53
2022/06/23 11:26:07;;;;;;;;;;;;;;;30.99;100.00;96063.56;4988834;28;20085;-49
2022/06/23 11:28:44;;;;;;;7.65;3.80;;;;;;;31.06;100.00;96058.59;4986152;28;20347;-50
2022/06/23 11:31:22;;;;;;;10.68;3.60;;;;;;;31.41;100.00;96056.66;4989616;28;20448;-46
2022/06/23 11:34:16;;;;;;;15.00;4.43;;;;;;;31.52;100.00;96054.66;4990058;28;20073;-56
2022/06/23 11:36:54;;;;;;;13.70;4.00;;;;;;;31.77;100.00;96045.41;4986234;28;20065;-48
2022/06/23 11:39:50;;;;;;;11.82;4.32;;;;;;;31.68;100.00;96039.78;4988682;28;20458;-51
2022/06/23 11:42:33;;;;;;;10.82;3.88;;;;;;;31.21;100.00;96047.59;4989713;28;20069;-51
2022/06/23 11:45:18;;;;;;;9.90;4.70;;;;;;;31.81;100.00;96038.28;4989849;28;20084;-54
2022/06/23 11:47:54;;;;;;;10.95;3.83;;;;;;;31.61;100.00;96042.84;4990718;28;20531;-50
2022/06/23 11:50:27;;;;;;;8.20;3.70;;;;;;;31.25;100.00;96042.38;4987521;28;20408;-51
2022/06/23 11:53:16;;;;;;;10.52;3.80;;;;;;;31.69;100.00;96025.03;4990136;28;20078;-48
2022/06/23 11:55:50;;;;;;;12.63;4.10;;;;;;;31.65;100.00;96026.72;4988508;28;20066;-51
2022/06/23 11:58:56;;;;;;;17.83;4.25;;;;;;;31.78;100.00;96026.03;4989752;28;20509;-49
2022/06/23 12:01:28;;;;;;;10.70;4.03;;;;;;;31.77;100.00;96021.69;4989424;28;20650;-47
2022/06/23 12:04:15;;;;;;;8.70;4.20;;;;;;;31.51;100.00;96012.16;4989424;28;20073;-48